createdAt,value
2022-12-27T00:00:14.954Z,1.90
2022-12-27T00:02:42.487Z,2.27
2022-12-27T00:05:10.125Z,2.50
2022-12-27T00:07:38.427Z,1.70
2022-12-27T00:10:05.928Z,1.90
2022-12-27T00:12:34.260Z,2.10
2022-12-27T00:15:01.778Z,1.80
2022-12-27T00:17:30.573Z,2.20
2022-12-27T00:19:58.050Z,1.53
2022-12-27T00:22:25.564Z,1.90
2022-12-27T00:24:53.086Z,1.70
2022-12-27T00:27:20.651Z,2.13
2022-12-27T00:29:49.278Z,2.00
2022-12-27T00:32:16.812Z,2.27
2022-12-27T00:34:44.376Z,2.00
2022-12-27T00:37:11.900Z,2.70
2022-12-27T00:39:39.473Z,2.87
2022-12-27T00:42:07.014Z,2.17
2022-12-27T00:44:34.550Z,2.53
2022-12-27T00:47:02.065Z,2.50
2022-12-27T00:49:29.622Z,2.03
2022-12-27T00:51:57.151Z,2.50
2022-12-27T00:54:24.693Z,1.80
2022-12-27T00:56:52.574Z,1.90
2022-12-27T00:59:20.116Z,2.03
2022-12-27T01:01:48.469Z,1.80
2022-12-27T01:04:16.707Z,2.07
2022-12-27T01:06:44.245Z,2.00
2022-12-27T01:09:12.366Z,2.07
2022-12-27T01:11:39.837Z,1.73
2022-12-27T01:14:07.361Z,2.95
2022-12-27T01:16:35.015Z,2.43
2022-12-27T01:19:03.200Z,2.13
2022-12-27T01:21:31.056Z,2.10
2022-12-27T01:23:58.289Z,2.43
2022-12-27T01:26:26.650Z,2.53
2022-12-27T01:28:54.152Z,2.40
2022-12-27T01:31:24.850Z,1.87
2022-12-27T01:33:54.658Z,2.37
2022-12-27T01:36:22.976Z,2.10
2022-12-27T01:38:50.510Z,2.20
2022-12-27T01:41:39.075Z,1.93
2022-12-27T01:44:40.277Z,2.13
2022-12-27T01:47:13.461Z,2.33
2022-12-27T01:49:46.471Z,2.00
2022-12-27T01:52:15.350Z,1.90
2022-12-27T01:54:42.731Z,1.77
2022-12-27T01:57:10.296Z,2.40
2022-12-27T01:59:37.879Z,2.53
2022-12-27T02:02:05.616Z,2.40
2022-12-27T02:04:33.011Z,1.90
2022-12-27T02:07:00.567Z,1.90
2022-12-27T02:09:43.077Z,2.50
2022-12-27T02:12:10.621Z,2.17
2022-12-27T02:14:41.683Z,2.43
2022-12-27T02:17:14.741Z,2.13
2022-12-27T02:19:42.332Z,2.20
2022-12-27T02:22:31.619Z,1.90
2022-12-27T02:25:17.117Z,2.27
2022-12-27T02:27:50.658Z,1.90
2022-12-27T02:30:18.193Z,2.60
2022-12-27T02:32:55.558Z,2.17
2022-12-27T02:35:25.053Z,2.53
2022-12-27T02:37:52.559Z,2.20
2022-12-27T02:40:38.890Z,1.80
2022-12-27T02:43:24.440Z,1.83
2022-12-27T02:46:21.714Z,2.20
2022-12-27T02:49:14.028Z,1.63
2022-12-27T02:52:28.040Z,2.13
2022-12-27T02:54:58.362Z,2.10
2022-12-27T02:57:44.635Z,2.45
2022-12-27T03:00:30.272Z,2.07
2022-12-27T03:03:31.825Z,1.80
2022-12-27T03:06:32.224Z,1.90
2022-12-27T03:09:14.618Z,2.10
2022-12-27T03:12:06.134Z,1.90
2022-12-27T03:14:54.197Z,2.73
2022-12-27T03:17:27.834Z,1.87
2022-12-27T03:20:13.569Z,1.80
2022-12-27T03:22:59.373Z,1.80
2022-12-27T03:25:29.630Z,2.00
2022-12-27T03:28:23.827Z,1.77
2022-12-27T03:31:09.687Z,2.00
2022-12-27T03:33:37.185Z,1.67
2022-12-27T03:36:32.281Z,1.70
2022-12-27T03:39:27.861Z,1.80
2022-12-27T03:42:15.844Z,2.20
2022-12-27T03:44:42.237Z,2.17
2022-12-27T03:47:18.961Z,1.67
2022-12-27T03:49:46.525Z,1.93
2022-12-27T03:52:19.784Z,2.27
2022-12-27T03:54:47.294Z,2.53
2022-12-27T03:57:14.846Z,2.30
2022-12-27T03:59:42.368Z,2.30
2022-12-27T04:02:10.006Z,3.03
2022-12-27T04:04:38.345Z,1.90
2022-12-27T04:07:05.871Z,2.10
2022-12-27T04:09:51.527Z,2.40
2022-12-27T04:12:37.175Z,2.50
2022-12-27T04:15:22.965Z,2.90
2022-12-27T04:18:08.406Z,2.87
2022-12-27T04:20:54.246Z,2.47
2022-12-27T04:23:40.241Z,2.10
2022-12-27T04:26:27.657Z,1.97
2022-12-27T04:29:13.427Z,2.40
2022-12-27T04:31:59.952Z,2.23
2022-12-27T04:34:45.465Z,2.30
2022-12-27T04:37:16.241Z,2.10
2022-12-27T04:39:43.763Z,2.20
2022-12-27T04:42:29.331Z,2.00
2022-12-27T04:45:15.692Z,2.00
2022-12-27T04:48:00.700Z,2.10
2022-12-27T04:50:46.419Z,2.50
2022-12-27T04:53:32.427Z,2.23
2022-12-27T04:56:00.712Z,3.00
2022-12-27T04:58:28.279Z,2.27
2022-12-27T05:01:14.475Z,2.27
2022-12-27T05:03:41.529Z,2.50
2022-12-27T05:06:09.009Z,2.50
2022-12-27T05:08:54.679Z,2.87
2022-12-27T05:11:40.381Z,2.60
2022-12-27T05:14:08.832Z,2.20
2022-12-27T05:16:39.021Z,3.07
2022-12-27T05:19:06.554Z,2.90
2022-12-27T05:21:36.653Z,3.00
2022-12-27T05:24:22.286Z,2.60
2022-12-27T05:26:49.867Z,2.73
2022-12-27T05:29:17.371Z,4.10
2022-12-27T05:31:44.981Z,3.90
2022-12-27T05:34:13.386Z,3.30
2022-12-27T05:36:41.674Z,2.60
2022-12-27T05:39:09.198Z,3.10
2022-12-27T05:41:36.744Z,2.63
2022-12-27T05:44:07.390Z,2.73
2022-12-27T05:46:32.208Z,2.93
2022-12-27T05:48:59.719Z,3.10
2022-12-27T05:51:27.234Z,3.67
2022-12-27T05:53:54.755Z,3.37
2022-12-27T05:56:22.320Z,3.23
2022-12-27T05:58:49.821Z,4.20
2022-12-27T06:01:17.398Z,3.57
2022-12-27T06:03:45.775Z,3.43
2022-12-27T06:06:13.308Z,3.53
2022-12-27T06:08:41.627Z,3.37
2022-12-27T06:11:12.366Z,4.23
2022-12-27T06:13:39.910Z,3.40
2022-12-27T06:16:07.476Z,3.33
2022-12-27T06:18:35.763Z,3.97
2022-12-27T06:21:05.985Z,3.83
2022-12-27T06:23:33.549Z,3.70
2022-12-27T06:26:02.100Z,5.12
2022-12-27T06:28:29.617Z,4.30
2022-12-27T06:30:57.150Z,4.43
2022-12-27T06:33:25.074Z,3.90
2022-12-27T06:35:52.611Z,5.50
2022-12-27T06:38:20.691Z,4.60
2022-12-27T06:40:48.478Z,4.10
2022-12-27T06:43:16.092Z,3.83
2022-12-27T06:45:43.661Z,4.20
2022-12-27T06:48:11.194Z,3.53
2022-12-27T06:50:38.716Z,4.17
2022-12-27T06:53:06.241Z,4.00
2022-12-27T06:55:34.708Z,3.50
2022-12-27T06:58:02.243Z,4.10
2022-12-27T07:00:29.874Z,4.27
2022-12-27T07:02:57.365Z,4.10
2022-12-27T07:05:24.834Z,4.00
2022-12-27T07:07:52.359Z,5.18
2022-12-27T07:10:19.930Z,4.20
2022-12-27T07:12:47.458Z,4.03
2022-12-27T07:15:15.030Z,4.47
2022-12-27T07:17:42.608Z,4.80
2022-12-27T07:20:10.176Z,4.40
2022-12-27T07:22:37.748Z,4.07
2022-12-27T07:25:05.646Z,4.17
2022-12-27T07:27:36.321Z,3.90
2022-12-27T07:30:03.912Z,3.63
2022-12-27T07:32:31.567Z,3.43
2022-12-27T07:34:59.154Z,3.80
2022-12-27T07:37:26.801Z,3.47
2022-12-27T07:39:56.326Z,3.77
2022-12-27T07:42:23.892Z,3.87
2022-12-27T07:44:51.486Z,3.77
2022-12-27T07:47:19.366Z,3.70
2022-12-27T07:49:46.930Z,3.50
2022-12-27T07:52:14.501Z,3.73
2022-12-27T07:54:42.311Z,3.40
2022-12-27T07:57:09.944Z,3.90
2022-12-27T07:59:37.529Z,3.93
2022-12-27T08:02:05.260Z,3.17
2022-12-27T08:04:32.733Z,3.53
2022-12-27T08:07:03.020Z,4.33
2022-12-27T08:09:31.759Z,3.80
2022-12-27T08:11:59.363Z,3.70
2022-12-27T08:14:26.984Z,5.93
2022-12-27T08:16:54.631Z,4.77
2022-12-27T08:19:22.211Z,3.57
2022-12-27T08:21:49.822Z,3.70
2022-12-27T08:24:17.429Z,3.70
2022-12-27T08:26:45.010Z,3.73
2022-12-27T08:29:12.559Z,3.30
2022-12-27T08:31:40.182Z,3.50
2022-12-27T08:34:07.746Z,3.87
2022-12-27T08:39:02.925Z,3.27
2022-12-27T08:41:30.558Z,3.00
2022-12-27T08:43:58.159Z,3.47
2022-12-27T08:46:25.745Z,3.40
2022-12-27T08:48:53.279Z,3.43
2022-12-27T08:51:31.681Z,4.10
2022-12-27T08:53:50.444Z,3.33
2022-12-27T08:56:18.104Z,2.93
2022-12-27T08:58:46.570Z,3.60
2022-12-27T09:01:15.452Z,4.00
2022-12-27T09:03:43.294Z,3.63
2022-12-27T09:06:13.798Z,4.13
2022-12-27T09:08:41.367Z,3.97
2022-12-27T09:11:12.212Z,3.83
2022-12-27T09:13:39.772Z,4.10
2022-12-27T09:16:07.363Z,3.87
2022-12-27T09:18:34.885Z,4.33
2022-12-27T09:21:08.180Z,3.93
2022-12-27T09:23:36.467Z,3.50
2022-12-27T09:26:06.860Z,4.10
2022-12-27T09:28:34.416Z,3.60
2022-12-27T09:31:02.839Z,3.17
2022-12-27T09:33:30.338Z,4.33
2022-12-27T09:36:12.744Z,3.53
2022-12-27T09:38:41.094Z,5.40
2022-12-27T09:41:59.000Z,4.07
2022-12-27T09:43:57.975Z,4.70
2022-12-27T09:46:28.081Z,4.80
2022-12-27T09:48:55.624Z,4.20
2022-12-27T09:51:26.015Z,3.73
2022-12-27T09:54:02.831Z,3.77
2022-12-27T09:56:54.114Z,3.53
2022-12-27T09:59:03.932Z,3.70
2022-12-27T10:01:31.624Z,4.00
2022-12-27T10:03:59.091Z,3.83
2022-12-27T10:06:44.347Z,3.77
2022-12-27T10:09:30.226Z,5.05
2022-12-27T10:12:03.691Z,4.30
2022-12-27T10:14:31.273Z,3.60
2022-12-27T10:16:58.822Z,4.30
2022-12-27T10:19:36.361Z,4.03
2022-12-27T10:22:31.204Z,3.97
2022-12-27T10:24:58.778Z,3.50
2022-12-27T10:27:26.359Z,4.17
2022-12-27T10:29:53.938Z,3.97
2022-12-27T10:32:21.486Z,3.77
2022-12-27T10:34:51.805Z,4.60
2022-12-27T10:37:19.408Z,5.37
2022-12-27T10:39:46.950Z,5.20
2022-12-27T10:42:26.122Z,4.27
2022-12-27T10:44:55.362Z,4.78
2022-12-27T10:47:22.951Z,3.57
2022-12-27T10:50:05.662Z,4.40
2022-12-27T10:52:33.223Z,3.57
2022-12-27T10:55:00.812Z,3.53
2022-12-27T10:57:31.936Z,4.33
2022-12-27T11:00:17.833Z,3.50
2022-12-27T11:02:51.082Z,3.80
2022-12-27T11:05:21.407Z,3.70
2022-12-27T11:07:48.960Z,3.87
2022-12-27T11:10:16.965Z,4.50
2022-12-27T11:13:02.881Z,3.80
2022-12-27T11:15:39.121Z,3.70
2022-12-27T11:18:12.453Z,3.90
2022-12-27T11:20:40.091Z,3.93
2022-12-27T11:23:11.733Z,3.37
2022-12-27T11:25:50.726Z,3.63
2022-12-27T11:28:49.667Z,4.10
2022-12-27T11:31:17.406Z,4.70
2022-12-27T11:33:51.694Z,4.10
2022-12-27T11:36:28.754Z,3.57
2022-12-27T11:38:56.236Z,4.23
2022-12-27T11:41:32.548Z,3.67
2022-12-27T11:44:02.790Z,3.67
2022-12-27T11:46:35.744Z,3.13
2022-12-27T11:49:03.253Z,3.37
2022-12-27T11:51:51.010Z,3.50
2022-12-27T11:54:45.628Z,4.47
2022-12-27T11:57:31.565Z,7.60
2022-12-27T11:59:59.857Z,3.90
2022-12-27T12:02:37.134Z,3.17
2022-12-27T12:05:25.962Z,3.57
2022-12-27T12:08:23.878Z,3.30
2022-12-27T12:10:55.164Z,2.87
2022-12-27T12:13:47.133Z,3.10
2022-12-27T12:16:33.221Z,2.90
2022-12-27T12:19:19.021Z,3.50
2022-12-27T12:22:05.026Z,3.33
2022-12-27T12:24:56.662Z,2.63
2022-12-27T12:27:39.227Z,2.27
2022-12-27T12:30:22.463Z,2.63
2022-12-27T12:32:46.444Z,2.80
2022-12-27T12:35:22.572Z,2.30
2022-12-27T12:38:08.115Z,2.80
2022-12-27T12:40:54.569Z,3.07
2022-12-27T12:43:40.949Z,2.83
2022-12-27T12:46:32.985Z,2.80
2022-12-27T12:49:21.516Z,2.93
2022-12-27T12:52:13.374Z,2.40
2022-12-27T12:54:58.703Z,2.40
2022-12-27T12:57:47.531Z,2.77
2022-12-27T13:00:15.359Z,2.97
2022-12-27T13:03:03.977Z,3.28
2022-12-27T13:05:40.755Z,3.10
2022-12-27T13:08:08.264Z,2.00
2022-12-27T13:11:00.544Z,2.73
2022-12-27T13:13:39.810Z,2.20
2022-12-27T13:16:14.215Z,2.47
2022-12-27T13:19:06.032Z,3.37
2022-12-27T13:21:36.279Z,2.90
2022-12-27T13:24:09.416Z,2.23
2022-12-27T13:26:45.655Z,3.00
2022-12-27T13:29:27.654Z,2.57
2022-12-27T13:32:23.201Z,2.20
2022-12-27T13:35:05.777Z,2.03
2022-12-27T13:37:36.843Z,2.00
2022-12-27T13:40:16.717Z,2.17
2022-12-27T13:43:06.247Z,2.10
2022-12-27T13:45:36.375Z,2.60
2022-12-27T13:48:40.626Z,2.00
2022-12-27T13:51:10.987Z,1.53
2022-12-27T13:53:40.993Z,1.70
2022-12-27T13:59:19.020Z,2.00
2022-12-27T14:02:01.737Z,2.00
2022-12-27T14:04:40.841Z,2.00
2022-12-27T14:07:32.537Z,1.93
2022-12-27T14:10:18.416Z,2.70
2022-12-27T14:12:54.545Z,2.20
2022-12-27T14:15:22.113Z,2.55
2022-12-27T14:18:01.655Z,2.03
2022-12-27T14:20:56.854Z,2.03
2022-12-27T14:23:30.161Z,2.03
2022-12-27T14:26:13.162Z,1.90
2022-12-27T14:29:14.288Z,2.00
2022-12-27T14:32:18.393Z,2.13
2022-12-27T14:35:07.230Z,2.07
2022-12-27T14:37:53.427Z,2.00
2022-12-27T14:40:20.984Z,1.97
2022-12-27T14:43:24.841Z,2.07
2022-12-27T14:46:17.147Z,1.93
2022-12-27T14:49:05.739Z,1.73
2022-12-27T14:52:12.346Z,2.13
2022-12-27T14:54:50.057Z,3.00
2022-12-27T14:57:26.218Z,1.90
2022-12-27T15:00:03.211Z,2.33
2022-12-27T15:02:45.768Z,2.20
2022-12-27T15:05:31.687Z,2.23
2022-12-27T15:08:17.591Z,1.83
2022-12-27T15:10:51.552Z,1.77
2022-12-27T15:13:21.879Z,2.03
2022-12-27T15:15:49.547Z,2.47
2022-12-27T15:18:34.661Z,1.83
2022-12-27T15:21:20.028Z,2.07
2022-12-27T15:23:48.867Z,2.30
2022-12-27T15:26:19.411Z,2.27
2022-12-27T15:29:05.017Z,2.40
2022-12-27T15:31:35.224Z,1.93
2022-12-27T15:34:24.204Z,2.13
2022-12-27T15:36:51.719Z,2.77
2022-12-27T15:39:34.252Z,2.10
2022-12-27T15:42:13.561Z,3.43
2022-12-27T15:44:46.948Z,1.90
2022-12-27T15:47:33.183Z,2.27
2022-12-27T15:50:15.506Z,1.90
2022-12-27T15:52:57.743Z,2.67
2022-12-27T15:55:49.625Z,2.53
2022-12-27T15:58:20.134Z,2.80
2022-12-27T16:00:47.638Z,2.80
2022-12-27T16:03:33.590Z,2.17
2022-12-27T16:06:01.819Z,1.77
2022-12-27T16:08:38.176Z,2.07
2022-12-27T16:11:06.477Z,2.53
2022-12-27T16:13:45.944Z,2.43
2022-12-27T16:16:28.810Z,2.33
2022-12-27T16:19:23.796Z,2.40
2022-12-27T16:21:51.380Z,2.50
2022-12-27T16:24:18.875Z,3.37
2022-12-27T16:26:48.884Z,2.83
2022-12-27T16:29:16.403Z,2.90
2022-12-27T16:31:45.856Z,2.50
2022-12-27T16:34:14.443Z,3.67
2022-12-27T16:36:44.678Z,3.30
2022-12-27T16:39:12.170Z,2.90
2022-12-27T16:41:54.856Z,2.70
2022-12-27T16:44:24.798Z,4.73
2022-12-27T16:47:10.795Z,2.77
2022-12-27T16:50:14.696Z,2.50
2022-12-27T16:52:45.231Z,2.77
2022-12-27T16:55:15.445Z,4.63
2022-12-27T16:57:42.994Z,4.53
2022-12-27T17:00:22.785Z,3.03
2022-12-27T17:02:50.351Z,2.97
2022-12-27T17:05:17.814Z,3.20
2022-12-27T17:07:45.381Z,3.40
2022-12-27T17:10:25.704Z,2.80
2022-12-27T17:12:53.267Z,3.67
2022-12-27T17:15:20.793Z,4.00
2022-12-27T17:17:48.321Z,4.43
2022-12-27T17:20:15.945Z,3.07
2022-12-27T17:22:43.492Z,3.60
2022-12-27T17:25:17.008Z,3.13
2022-12-27T17:27:47.827Z,3.67
2022-12-27T17:30:21.495Z,4.20
2022-12-27T17:33:05.191Z,4.07
2022-12-27T17:35:47.603Z,4.50
2022-12-27T17:38:39.081Z,3.90
2022-12-27T17:41:13.669Z,3.80
2022-12-27T17:44:03.903Z,3.37
2022-12-27T17:46:40.468Z,3.27
2022-12-27T17:49:08.080Z,3.90
2022-12-27T17:51:35.603Z,3.33
2022-12-27T17:54:21.586Z,4.97
2022-12-27T17:57:16.056Z,3.67
2022-12-27T17:59:43.647Z,4.20
2022-12-27T18:02:16.847Z,3.73
2022-12-27T18:04:50.239Z,4.80
2022-12-27T18:07:17.763Z,4.00
2022-12-27T18:09:51.528Z,6.73
2022-12-27T18:12:24.826Z,4.33
2022-12-27T18:14:55.317Z,7.70
2022-12-27T18:17:28.928Z,4.27
2022-12-27T18:19:55.999Z,3.20
2022-12-27T18:22:23.549Z,4.03
2022-12-27T18:24:51.102Z,4.32
2022-12-27T18:27:21.689Z,4.55
2022-12-27T18:31:17.993Z,3.53
2022-12-27T18:33:46.106Z,4.50
2022-12-27T18:36:16.301Z,3.70
2022-12-27T18:38:44.607Z,3.73
2022-12-27T18:41:15.824Z,3.27
2022-12-27T18:43:44.102Z,2.90
2022-12-27T18:46:17.987Z,2.87
2022-12-27T18:48:45.520Z,4.20
2022-12-27T18:51:13.049Z,4.10
2022-12-27T18:53:40.588Z,3.70
2022-12-27T18:56:14.687Z,4.70
2022-12-27T18:58:42.234Z,3.60
2022-12-27T19:01:25.124Z,4.43
2022-12-27T19:04:13.495Z,4.87
2022-12-27T19:06:55.552Z,5.35
2022-12-27T19:09:25.853Z,5.20
2022-12-27T19:11:54.153Z,5.93
2022-12-27T19:14:21.737Z,4.70
2022-12-27T19:16:49.266Z,4.30
2022-12-27T19:19:19.235Z,4.30
2022-12-27T19:21:46.809Z,5.50
2022-12-27T19:24:23.601Z,5.00
2022-12-27T19:26:51.181Z,4.93
2022-12-27T19:29:21.264Z,5.50
2022-12-27T19:31:58.463Z,6.25
2022-12-27T19:34:31.843Z,5.27
2022-12-27T19:37:03.245Z,7.40
2022-12-27T19:39:30.832Z,6.03
2022-12-27T19:42:00.974Z,6.93
2022-12-27T19:44:25.895Z,5.87
2022-12-27T19:46:53.491Z,5.87
2022-12-27T19:49:42.678Z,5.80
2022-12-27T19:51:49.515Z,6.07
2022-12-27T19:54:17.003Z,6.00
2022-12-27T19:56:44.540Z,5.63
2022-12-27T19:59:17.622Z,4.50
2022-12-27T20:01:47.788Z,4.83
2022-12-27T20:04:15.188Z,5.95
2022-12-27T20:06:42.740Z,5.50
2022-12-27T20:09:10.307Z,5.30
2022-12-27T20:11:37.856Z,4.93
2022-12-27T20:14:06.134Z,4.77
2022-12-27T20:16:33.725Z,5.23
2022-12-27T20:19:01.257Z,4.60
2022-12-27T20:21:28.796Z,4.70
2022-12-27T20:23:56.388Z,4.57
2022-12-27T20:26:23.924Z,4.10
2022-12-27T20:28:51.451Z,3.60
2022-12-27T20:31:19.030Z,3.80
2022-12-27T20:33:46.530Z,4.97
2022-12-27T20:36:14.061Z,4.30
2022-12-27T20:38:41.668Z,4.10
2022-12-27T20:41:09.254Z,5.13
2022-12-27T20:43:36.753Z,5.90
2022-12-27T20:46:04.383Z,6.22
2022-12-27T20:48:31.861Z,5.67
2022-12-27T20:50:59.439Z,5.10
2022-12-27T20:53:27.817Z,4.90
2022-12-27T20:55:57.951Z,5.10
2022-12-27T20:58:25.442Z,5.33
2022-12-27T21:00:53.847Z,4.97
2022-12-27T21:03:21.509Z,4.13
2022-12-27T21:05:48.842Z,4.90
2022-12-27T21:08:17.183Z,4.77
2022-12-27T21:10:44.707Z,4.20
2022-12-27T21:13:12.230Z,5.00
2022-12-27T21:15:42.546Z,5.20
2022-12-27T21:18:08.138Z,4.60
2022-12-27T21:20:35.673Z,5.72
2022-12-27T21:23:03.829Z,5.63
2022-12-27T21:25:31.372Z,4.03
2022-12-27T21:27:58.900Z,4.70
2022-12-27T21:30:26.481Z,4.30
2022-12-27T21:32:54.775Z,4.95
2022-12-27T21:35:22.297Z,4.67
2022-12-27T21:37:50.122Z,5.00
2022-12-27T21:40:18.587Z,4.30
2022-12-27T21:42:45.937Z,4.57
2022-12-27T21:45:13.795Z,4.57
2022-12-27T21:47:41.329Z,4.33
2022-12-27T21:50:09.711Z,3.63
2022-12-27T21:52:38.047Z,3.90
2022-12-27T21:55:06.494Z,4.07
2022-12-27T21:57:33.933Z,4.23
2022-12-27T22:00:02.543Z,4.20
2022-12-27T22:02:30.185Z,4.10
2022-12-27T22:04:58.376Z,4.03
2022-12-27T22:07:25.979Z,4.07
2022-12-27T22:09:53.487Z,4.27
2022-12-27T22:12:21.007Z,4.13
2022-12-27T22:14:48.565Z,4.43
2022-12-27T22:17:16.113Z,5.37
2022-12-27T22:19:43.646Z,4.87
2022-12-27T22:22:11.214Z,4.80
2022-12-27T22:24:38.739Z,4.40
2022-12-27T22:27:06.276Z,5.27
2022-12-27T22:29:35.565Z,4.97
2022-12-27T22:32:02.128Z,4.90
2022-12-27T22:34:29.648Z,4.83
2022-12-27T22:36:57.212Z,4.77
2022-12-27T22:39:24.757Z,5.57
2022-12-27T22:41:52.300Z,4.67
2022-12-27T22:44:19.877Z,4.40
2022-12-27T22:49:14.942Z,5.65
2022-12-27T22:51:42.521Z,4.80
2022-12-27T22:54:10.076Z,4.37
2022-12-27T22:56:41.057Z,4.40
2022-12-27T22:59:11.939Z,4.10
2022-12-27T23:01:39.531Z,5.43
2022-12-27T23:04:07.856Z,4.57
2022-12-27T23:06:35.355Z,3.40
2022-12-27T23:09:02.879Z,3.90
2022-12-27T23:11:31.159Z,4.07
2022-12-27T23:13:58.749Z,4.13
2022-12-27T23:16:26.304Z,4.07
2022-12-27T23:18:53.797Z,4.27
2022-12-27T23:21:24.510Z,5.20
2022-12-27T23:23:48.864Z,3.90
2022-12-27T23:26:16.444Z,3.87
2022-12-27T23:28:44.007Z,3.83
2022-12-27T23:31:11.552Z,3.97
2022-12-27T23:33:39.056Z,4.20
2022-12-27T23:36:06.759Z,3.83
2022-12-27T23:38:34.283Z,4.03
2022-12-27T23:41:01.813Z,4.60
2022-12-27T23:46:05.632Z,4.93
2022-12-27T23:48:33.157Z,5.47
2022-12-27T23:51:00.736Z,4.80
2022-12-27T23:53:28.265Z,4.27
2022-12-27T23:55:59.216Z,4.87
2022-12-27T23:58:26.950Z,5.50
